CheckWX is a tool to help pilots better visualize weather data.  It is not intended as a substitute for an official pre-flight weather briefing.

02:55:10 UTC

SBBH METAR
Pampulha - Carlos Drummond de Andrade Airport
Belo Horizonte, Brazil
Current

55 mins ago

SBBH 230200Z 00000KT CAVOK 13/11 Q1026
Observed
Jul-23 @ 02:00 UTC
Visibility
10,000+ meters
Flight Rules
VFR
Cloud Levels
  • Clear skies
Temperature
13°C / 55°F
Dewpoint
11°C / 52°F
Humidity
88%
Altimeter
30.3" Hg
Pressure
1025.92 hPa
Previous

2 hours ago

SBBH 230100Z 00000KT CAVOK 15/11 Q1026
Observed
Jul-23 @ 01:00 UTC
Visibility
10,000+ meters
Flight Rules
VFR
Cloud Levels
  • Clear skies
Temperature
15°C / 59°F
Dewpoint
11°C / 52°F
Humidity
77%
Altimeter
30.3" Hg
Pressure
1025.92 hPa
Previous

3 hours ago

SBBH 230000Z 09005KT CAVOK 17/11 Q1026
Observed
Jul-23 @ 00:00 UTC
Wind
  • 090° at 5 KTS
Visibility
10,000+ meters
Flight Rules
VFR
Cloud Levels
  • Clear skies
Temperature
17°C / 63°F
Dewpoint
11°C / 52°F
Humidity
68%
Altimeter
30.3" Hg
Pressure
1025.92 hPa